sensor_id;sensor_type;location;lat;lon;timestamp;temperature;humidity
25616;DHT22;13482;48.234;13.006;2022-08-01T00:00:50;24.00;61.00
25616;DHT22;13482;48.234;13.006;2022-08-01T00:03:17;23.90;61.10
25616;DHT22;13482;48.234;13.006;2022-08-01T00:05:44;23.90;61.10
25616;DHT22;13482;48.234;13.006;2022-08-01T00:08:13;23.80;61.20
25616;DHT22;13482;48.234;13.006;2022-08-01T00:10:40;23.80;61.50
25616;DHT22;13482;48.234;13.006;2022-08-01T00:13:07;23.70;61.50
25616;DHT22;13482;48.234;13.006;2022-08-01T00:15:36;23.70;61.60
25616;DHT22;13482;48.234;13.006;2022-08-01T00:18:03;23.60;61.60
25616;DHT22;13482;48.234;13.006;2022-08-01T00:20:30;23.60;61.50
25616;DHT22;13482;48.234;13.006;2022-08-01T00:22:58;23.50;61.60
25616;DHT22;13482;48.234;13.006;2022-08-01T00:25:25;23.40;61.80
25616;DHT22;13482;48.234;13.006;2022-08-01T00:28:00;23.40;62.00
25616;DHT22;13482;48.234;13.006;2022-08-01T00:30:30;23.40;62.10
25616;DHT22;13482;48.234;13.006;2022-08-01T00:32:57;23.30;62.10
25616;DHT22;13482;48.234;13.006;2022-08-01T00:35:25;23.30;62.40
25616;DHT22;13482;48.234;13.006;2022-08-01T00:37:52;23.20;62.40
25616;DHT22;13482;48.234;13.006;2022-08-01T00:40:19;23.10;62.40
25616;DHT22;13482;48.234;13.006;2022-08-01T00:42:46;23.10;62.60
25616;DHT22;13482;48.234;13.006;2022-08-01T00:45:14;23.10;62.80
25616;DHT22;13482;48.234;13.006;2022-08-01T00:47:41;23.00;62.90
25616;DHT22;13482;48.234;13.006;2022-08-01T00:50:09;23.00;63.00
25616;DHT22;13482;48.234;13.006;2022-08-01T00:52:39;23.00;63.30
25616;DHT22;13482;48.234;13.006;2022-08-01T00:55:09;23.00;63.60
25616;DHT22;13482;48.234;13.006;2022-08-01T00:57:41;23.00;63.70
25616;DHT22;13482;48.234;13.006;2022-08-01T01:00:28;23.00;63.70
25616;DHT22;13482;48.234;13.006;2022-08-01T01:02:59;23.00;63.70
25616;DHT22;13482;48.234;13.006;2022-08-01T01:05:26;23.00;63.80
25616;DHT22;13482;48.234;13.006;2022-08-01T01:08:04;22.90;63.90
25616;DHT22;13482;48.234;13.006;2022-08-01T01:10:46;22.90;64.00
25616;DHT22;13482;48.234;13.006;2022-08-01T01:16:05;22.90;64.90
25616;DHT22;13482;48.234;13.006;2022-08-01T01:18:47;22.90;64.90
25616;DHT22;13482;48.234;13.006;2022-08-01T01:29:46;22.80;65.60
25616;DHT22;13482;48.234;13.006;2022-08-01T01:32:36;22.80;64.40
25616;DHT22;13482;48.234;13.006;2022-08-01T01:35:09;22.80;65.20
25616;DHT22;13482;48.234;13.006;2022-08-01T01:37:42;22.80;64.60
25616;DHT22;13482;48.234;13.006;2022-08-01T01:40:11;22.80;64.50
25616;DHT22;13482;48.234;13.006;2022-08-01T01:42:39;22.80;64.50
25616;DHT22;13482;48.234;13.006;2022-08-01T01:45:08;22.80;64.60
25616;DHT22;13482;48.234;13.006;2022-08-01T01:47:38;22.80;64.60
25616;DHT22;13482;48.234;13.006;2022-08-01T01:50:07;22.80;64.80
25616;DHT22;13482;48.234;13.006;2022-08-01T01:52:38;22.80;64.70
25616;DHT22;13482;48.234;13.006;2022-08-01T01:55:08;22.80;64.80
25616;DHT22;13482;48.234;13.006;2022-08-01T01:57:38;22.80;64.90
25616;DHT22;13482;48.234;13.006;2022-08-01T02:00:09;22.80;64.80
25616;DHT22;13482;48.234;13.006;2022-08-01T02:02:38;22.80;64.70
25616;DHT22;13482;48.234;13.006;2022-08-01T02:05:09;22.80;64.70
25616;DHT22;13482;48.234;13.006;2022-08-01T02:07:39;22.80;64.90
25616;DHT22;13482;48.234;13.006;2022-08-01T02:10:07;22.80;64.80
25616;DHT22;13482;48.234;13.006;2022-08-01T02:12:37;22.80;64.70
25616;DHT22;13482;48.234;13.006;2022-08-01T02:15:06;22.80;64.80
25616;DHT22;13482;48.234;13.006;2022-08-01T02:17:41;22.80;64.80
25616;DHT22;13482;48.234;13.006;2022-08-01T02:20:11;22.80;65.10
25616;DHT22;13482;48.234;13.006;2022-08-01T02:25:54;22.80;66.10
25616;DHT22;13482;48.234;13.006;2022-08-01T02:28:43;22.80;65.70
25616;DHT22;13482;48.234;13.006;2022-08-01T02:31:18;22.80;65.30
25616;DHT22;13482;48.234;13.006;2022-08-01T02:33:54;22.80;65.20
25616;DHT22;13482;48.234;13.006;2022-08-01T02:36:30;22.80;65.50
25616;DHT22;13482;48.234;13.006;2022-08-01T02:39:02;22.70;65.20
25616;DHT22;13482;48.234;13.006;2022-08-01T02:41:38;22.70;65.40
25616;DHT22;13482;48.234;13.006;2022-08-01T02:44:09;22.70;64.70
25616;DHT22;13482;48.234;13.006;2022-08-01T02:46:46;22.70;65.00
25616;DHT22;13482;48.234;13.006;2022-08-01T02:49:20;22.60;65.70
25616;DHT22;13482;48.234;13.006;2022-08-01T02:51:50;22.50;65.40
25616;DHT22;13482;48.234;13.006;2022-08-01T02:54:18;22.50;65.40
25616;DHT22;13482;48.234;13.006;2022-08-01T02:56:49;22.40;65.50
25616;DHT22;13482;48.234;13.006;2022-08-01T02:59:19;22.40;65.70
25616;DHT22;13482;48.234;13.006;2022-08-01T03:01:54;22.30;65.80
25616;DHT22;13482;48.234;13.006;2022-08-01T03:04:23;22.30;65.90
25616;DHT22;13482;48.234;13.006;2022-08-01T03:06:53;22.20;66.00
25616;DHT22;13482;48.234;13.006;2022-08-01T03:09:22;22.20;66.20
25616;DHT22;13482;48.234;13.006;2022-08-01T03:11:51;22.20;66.20
25616;DHT22;13482;48.234;13.006;2022-08-01T03:14:20;22.10;66.20
25616;DHT22;13482;48.234;13.006;2022-08-01T03:16:51;22.10;66.30
25616;DHT22;13482;48.234;13.006;2022-08-01T03:19:20;22.10;66.40
25616;DHT22;13482;48.234;13.006;2022-08-01T03:21:50;22.00;66.40
25616;DHT22;13482;48.234;13.006;2022-08-01T03:24:19;22.00;66.60
25616;DHT22;13482;48.234;13.006;2022-08-01T03:26:48;21.90;66.70
25616;DHT22;13482;48.234;13.006;2022-08-01T03:29:21;21.90;66.70
25616;DHT22;13482;48.234;13.006;2022-08-01T03:31:51;21.90;66.80
25616;DHT22;13482;48.234;13.006;2022-08-01T03:34:19;21.80;66.80
25616;DHT22;13482;48.234;13.006;2022-08-01T03:36:59;21.80;66.90
25616;DHT22;13482;48.234;13.006;2022-08-01T03:40:17;21.80;67.40
25616;DHT22;13482;48.234;13.006;2022-08-01T03:42:53;21.80;68.00
25616;DHT22;13482;48.234;13.006;2022-08-01T03:45:28;21.70;67.00
25616;DHT22;13482;48.234;13.006;2022-08-01T03:48:01;21.70;67.00
25616;DHT22;13482;48.234;13.006;2022-08-01T03:50:34;21.70;67.10
25616;DHT22;13482;48.234;13.006;2022-08-01T03:53:03;21.70;67.20
25616;DHT22;13482;48.234;13.006;2022-08-01T03:55:33;21.60;67.10
25616;DHT22;13482;48.234;13.006;2022-08-01T03:58:04;21.60;67.20
25616;DHT22;13482;48.234;13.006;2022-08-01T04:00:37;21.60;67.20
25616;DHT22;13482;48.234;13.006;2022-08-01T04:03:08;21.60;67.20
25616;DHT22;13482;48.234;13.006;2022-08-01T04:05:36;21.60;67.20
25616;DHT22;13482;48.234;13.006;2022-08-01T04:08:03;21.50;67.30
25616;DHT22;13482;48.234;13.006;2022-08-01T04:10:31;21.50;67.30
25616;DHT22;13482;48.234;13.006;2022-08-01T04:12:59;21.50;67.50
25616;DHT22;13482;48.234;13.006;2022-08-01T04:15:26;21.50;67.50
25616;DHT22;13482;48.234;13.006;2022-08-01T04:17:54;21.50;67.60
25616;DHT22;13482;48.234;13.006;2022-08-01T04:20:21;21.50;67.60
25616;DHT22;13482;48.234;13.006;2022-08-01T04:22:48;21.50;67.80
25616;DHT22;13482;48.234;13.006;2022-08-01T04:25:21;21.50;67.70
25616;DHT22;13482;48.234;13.006;2022-08-01T04:27:54;21.50;67.90
25616;DHT22;13482;48.234;13.006;2022-08-01T04:30:31;21.50;67.80
25616;DHT22;13482;48.234;13.006;2022-08-01T04:33:02;21.50;68.30
25616;DHT22;13482;48.234;13.006;2022-08-01T04:35:32;21.50;67.90
25616;DHT22;13482;48.234;13.006;2022-08-01T04:38:22;21.50;67.90
25616;DHT22;13482;48.234;13.006;2022-08-01T04:40:54;21.50;67.90
25616;DHT22;13482;48.234;13.006;2022-08-01T04:43:23;21.50;68.00
25616;DHT22;13482;48.234;13.006;2022-08-01T04:45:51;21.50;68.00
25616;DHT22;13482;48.234;13.006;2022-08-01T04:48:19;21.50;68.00
25616;DHT22;13482;48.234;13.006;2022-08-01T04:50:49;21.50;68.00
25616;DHT22;13482;48.234;13.006;2022-08-01T04:53:19;21.60;68.00
25616;DHT22;13482;48.234;13.006;2022-08-01T04:55:48;21.60;68.10
25616;DHT22;13482;48.234;13.006;2022-08-01T04:58:16;21.60;68.20
25616;DHT22;13482;48.234;13.006;2022-08-01T05:00:45;21.60;68.20
25616;DHT22;13482;48.234;13.006;2022-08-01T05:03:13;21.60;68.20
25616;DHT22;13482;48.234;13.006;2022-08-01T05:05:41;21.60;68.20
25616;DHT22;13482;48.234;13.006;2022-08-01T05:08:08;21.70;68.30
25616;DHT22;13482;48.234;13.006;2022-08-01T05:10:35;21.70;68.50
25616;DHT22;13482;48.234;13.006;2022-08-01T05:13:02;21.70;68.50
25616;DHT22;13482;48.234;13.006;2022-08-01T05:15:29;21.80;68.50
25616;DHT22;13482;48.234;13.006;2022-08-01T05:17:57;21.80;68.60
25616;DHT22;13482;48.234;13.006;2022-08-01T05:20:25;21.90;68.70
25616;DHT22;13482;48.234;13.006;2022-08-01T05:22:52;22.00;68.90
25616;DHT22;13482;48.234;13.006;2022-08-01T05:25:19;22.10;68.90
25616;DHT22;13482;48.234;13.006;2022-08-01T05:28:06;22.20;69.00
25616;DHT22;13482;48.234;13.006;2022-08-01T05:30:34;22.40;68.90
25616;DHT22;13482;48.234;13.006;2022-08-01T05:33:01;22.50;68.80
25616;DHT22;13482;48.234;13.006;2022-08-01T05:35:28;22.70;68.80
25616;DHT22;13482;48.234;13.006;2022-08-01T05:38:15;22.90;68.60
25616;DHT22;13482;48.234;13.006;2022-08-01T05:40:43;23.00;68.50
25616;DHT22;13482;48.234;13.006;2022-08-01T05:43:11;23.20;68.30
25616;DHT22;13482;48.234;13.006;2022-08-01T05:45:38;23.40;68.20
25616;DHT22;13482;48.234;13.006;2022-08-01T05:48:05;23.60;67.90
25616;DHT22;13482;48.234;13.006;2022-08-01T05:50:33;23.80;67.60
25616;DHT22;13482;48.234;13.006;2022-08-01T05:53:00;23.90;67.40
25616;DHT22;13482;48.234;13.006;2022-08-01T05:55:27;24.10;67.30
25616;DHT22;13482;48.234;13.006;2022-08-01T05:57:55;24.20;67.10
25616;DHT22;13482;48.234;13.006;2022-08-01T06:00:22;24.30;66.90
25616;DHT22;13482;48.234;13.006;2022-08-01T06:02:49;24.50;66.70
25616;DHT22;13482;48.234;13.006;2022-08-01T06:05:16;24.70;66.50
25616;DHT22;13482;48.234;13.006;2022-08-01T06:07:44;24.80;66.20
25616;DHT22;13482;48.234;13.006;2022-08-01T06:10:11;24.90;65.70
25616;DHT22;13482;48.234;13.006;2022-08-01T06:12:38;25.00;65.50
25616;DHT22;13482;48.234;13.006;2022-08-01T06:15:06;25.10;65.30
25616;DHT22;13482;48.234;13.006;2022-08-01T06:17:34;25.10;65.10
25616;DHT22;13482;48.234;13.006;2022-08-01T06:20:02;25.20;64.90
25616;DHT22;13482;48.234;13.006;2022-08-01T06:22:30;25.30;64.60
25616;DHT22;13482;48.234;13.006;2022-08-01T06:24:58;25.30;64.50
25616;DHT22;13482;48.234;13.006;2022-08-01T06:27:25;25.30;64.30
25616;DHT22;13482;48.234;13.006;2022-08-01T06:29:52;25.40;64.10
25616;DHT22;13482;48.234;13.006;2022-08-01T06:32:20;25.40;64.00
25616;DHT22;13482;48.234;13.006;2022-08-01T06:34:54;25.40;64.00
25616;DHT22;13482;48.234;13.006;2022-08-01T06:37:22;25.50;63.90
25616;DHT22;13482;48.234;13.006;2022-08-01T06:39:50;25.50;63.90
25616;DHT22;13482;48.234;13.006;2022-08-01T06:42:17;25.50;63.90
25616;DHT22;13482;48.234;13.006;2022-08-01T06:44:44;25.60;63.80
25616;DHT22;13482;48.234;13.006;2022-08-01T06:47:12;25.60;63.70
25616;DHT22;13482;48.234;13.006;2022-08-01T06:49:39;25.70;63.40
25616;DHT22;13482;48.234;13.006;2022-08-01T06:52:06;25.80;63.50
25616;DHT22;13482;48.234;13.006;2022-08-01T06:54:35;25.80;63.40
25616;DHT22;13482;48.234;13.006;2022-08-01T06:57:05;25.90;63.30
25616;DHT22;13482;48.234;13.006;2022-08-01T06:59:32;25.90;63.40
25616;DHT22;13482;48.234;13.006;2022-08-01T07:02:00;26.00;63.60
25616;DHT22;13482;48.234;13.006;2022-08-01T07:04:28;26.10;63.30
25616;DHT22;13482;48.234;13.006;2022-08-01T07:06:56;26.20;63.20
25616;DHT22;13482;48.234;13.006;2022-08-01T07:09:24;26.30;63.30
25616;DHT22;13482;48.234;13.006;2022-08-01T07:11:52;26.40;63.20
25616;DHT22;13482;48.234;13.006;2022-08-01T07:14:20;26.50;62.70
25616;DHT22;13482;48.234;13.006;2022-08-01T07:16:49;26.60;62.50
25616;DHT22;13482;48.234;13.006;2022-08-01T07:19:17;26.60;62.50
25616;DHT22;13482;48.234;13.006;2022-08-01T07:21:44;26.70;62.20
25616;DHT22;13482;48.234;13.006;2022-08-01T07:24:15;26.80;62.20
25616;DHT22;13482;48.234;13.006;2022-08-01T07:26:47;26.90;61.70
25616;DHT22;13482;48.234;13.006;2022-08-01T07:29:24;26.90;61.00
25616;DHT22;13482;48.234;13.006;2022-08-01T07:31:56;27.00;60.60
25616;DHT22;13482;48.234;13.006;2022-08-01T07:34:25;27.00;60.50
25616;DHT22;13482;48.234;13.006;2022-08-01T07:36:52;27.00;60.90
25616;DHT22;13482;48.234;13.006;2022-08-01T07:39:20;27.10;60.50
25616;DHT22;13482;48.234;13.006;2022-08-01T07:41:48;27.20;60.50
25616;DHT22;13482;48.234;13.006;2022-08-01T07:44:34;27.30;60.60
25616;DHT22;13482;48.234;13.006;2022-08-01T07:47:02;27.50;60.30
25616;DHT22;13482;48.234;13.006;2022-08-01T07:49:29;27.70;59.90
25616;DHT22;13482;48.234;13.006;2022-08-01T07:52:03;27.80;59.60
25616;DHT22;13482;48.234;13.006;2022-08-01T07:54:31;27.90;59.30
25616;DHT22;13482;48.234;13.006;2022-08-01T07:57:01;28.10;59.10
25616;DHT22;13482;48.234;13.006;2022-08-01T07:59:29;28.20;59.10
25616;DHT22;13482;48.234;13.006;2022-08-01T08:01:56;28.30;58.90
25616;DHT22;13482;48.234;13.006;2022-08-01T08:04:24;28.50;58.50
25616;DHT22;13482;48.234;13.006;2022-08-01T08:06:52;28.60;58.30
25616;DHT22;13482;48.234;13.006;2022-08-01T08:09:20;28.70;58.60
25616;DHT22;13482;48.234;13.006;2022-08-01T08:11:48;28.90;58.40
25616;DHT22;13482;48.234;13.006;2022-08-01T08:14:18;29.00;58.40
25616;DHT22;13482;48.234;13.006;2022-08-01T08:16:46;29.20;57.80
25616;DHT22;13482;48.234;13.006;2022-08-01T08:19:14;29.30;57.90
25616;DHT22;13482;48.234;13.006;2022-08-01T08:21:41;29.40;57.00
25616;DHT22;13482;48.234;13.006;2022-08-01T08:24:09;29.50;57.30
25616;DHT22;13482;48.234;13.006;2022-08-01T08:26:57;29.60;57.30
25616;DHT22;13482;48.234;13.006;2022-08-01T08:29:26;29.70;56.80
25616;DHT22;13482;48.234;13.006;2022-08-01T08:31:56;29.80;56.80
25616;DHT22;13482;48.234;13.006;2022-08-01T08:34:26;29.90;56.80
25616;DHT22;13482;48.234;13.006;2022-08-01T08:36:55;30.00;56.60
25616;DHT22;13482;48.234;13.006;2022-08-01T08:39:25;30.10;56.50
25616;DHT22;13482;48.234;13.006;2022-08-01T08:41:53;30.20;56.50
25616;DHT22;13482;48.234;13.006;2022-08-01T08:44:20;30.30;56.40
25616;DHT22;13482;48.234;13.006;2022-08-01T08:46:50;30.50;56.10
25616;DHT22;13482;48.234;13.006;2022-08-01T08:49:23;30.60;55.90
25616;DHT22;13482;48.234;13.006;2022-08-01T08:51:52;30.70;55.70
25616;DHT22;13482;48.234;13.006;2022-08-01T08:54:22;30.90;56.00
25616;DHT22;13482;48.234;13.006;2022-08-01T08:56:59;31.00;54.60
25616;DHT22;13482;48.234;13.006;2022-08-01T08:59:27;31.10;54.10
25616;DHT22;13482;48.234;13.006;2022-08-01T09:01:55;31.10;54.40
25616;DHT22;13482;48.234;13.006;2022-08-01T09:04:25;31.20;54.20
25616;DHT22;13482;48.234;13.006;2022-08-01T09:06:54;31.20;54.10
25616;DHT22;13482;48.234;13.006;2022-08-01T09:09:22;31.20;53.70
25616;DHT22;13482;48.234;13.006;2022-08-01T09:11:50;31.20;53.80
25616;DHT22;13482;48.234;13.006;2022-08-01T09:14:24;31.30;54.20
25616;DHT22;13482;48.234;13.006;2022-08-01T09:17:02;31.30;54.40
25616;DHT22;13482;48.234;13.006;2022-08-01T09:19:43;31.50;53.90
25616;DHT22;13482;48.234;13.006;2022-08-01T09:22:16;31.60;52.80
25616;DHT22;13482;48.234;13.006;2022-08-01T09:25:05;31.60;53.70
25616;DHT22;13482;48.234;13.006;2022-08-01T09:27:35;31.70;52.70
25616;DHT22;13482;48.234;13.006;2022-08-01T09:30:19;31.80;53.40
25616;DHT22;13482;48.234;13.006;2022-08-01T09:33:00;31.80;52.20
25616;DHT22;13482;48.234;13.006;2022-08-01T09:35:54;31.70;52.50
25616;DHT22;13482;48.234;13.006;2022-08-01T09:38:24;31.70;53.20
25616;DHT22;13482;48.234;13.006;2022-08-01T09:40:57;31.70;53.80
25616;DHT22;13482;48.234;13.006;2022-08-01T09:43:29;31.80;53.30
25616;DHT22;13482;48.234;13.006;2022-08-01T09:45:59;31.90;53.30
25616;DHT22;13482;48.234;13.006;2022-08-01T09:48:29;32.00;53.40
25616;DHT22;13482;48.234;13.006;2022-08-01T09:50:59;32.10;53.20
25616;DHT22;13482;48.234;13.006;2022-08-01T09:53:47;32.20;52.60
25616;DHT22;13482;48.234;13.006;2022-08-01T09:56:19;32.30;51.60
25616;DHT22;13482;48.234;13.006;2022-08-01T10:01:24;32.50;52.20
25616;DHT22;13482;48.234;13.006;2022-08-01T10:04:11;32.60;52.00
25616;DHT22;13482;48.234;13.006;2022-08-01T10:06:43;32.70;51.40
25616;DHT22;13482;48.234;13.006;2022-08-01T10:09:13;32.70;51.50
25616;DHT22;13482;48.234;13.006;2022-08-01T10:11:42;32.70;51.50
25616;DHT22;13482;48.234;13.006;2022-08-01T10:14:11;32.60;51.40
25616;DHT22;13482;48.234;13.006;2022-08-01T10:16:45;32.60;51.70
25616;DHT22;13482;48.234;13.006;2022-08-01T10:19:31;32.70;51.90
25616;DHT22;13482;48.234;13.006;2022-08-01T10:22:00;32.80;51.70
25616;DHT22;13482;48.234;13.006;2022-08-01T10:24:30;32.80;51.60
25616;DHT22;13482;48.234;13.006;2022-08-01T10:27:02;32.90;51.40
25616;DHT22;13482;48.234;13.006;2022-08-01T10:29:57;33.00;50.90
25616;DHT22;13482;48.234;13.006;2022-08-01T10:32:48;33.00;50.30
25616;DHT22;13482;48.234;13.006;2022-08-01T10:35:18;33.10;51.00
25616;DHT22;13482;48.234;13.006;2022-08-01T10:38:06;33.10;50.80
25616;DHT22;13482;48.234;13.006;2022-08-01T10:40:43;33.20;50.20
25616;DHT22;13482;48.234;13.006;2022-08-01T10:43:12;33.20;50.00
25616;DHT22;13482;48.234;13.006;2022-08-01T10:45:48;33.20;49.00
25616;DHT22;13482;48.234;13.006;2022-08-01T10:48:38;33.10;48.30
25616;DHT22;13482;48.234;13.006;2022-08-01T10:51:10;33.00;48.60
25616;DHT22;13482;48.234;13.006;2022-08-01T10:53:54;32.90;49.30
25616;DHT22;13482;48.234;13.006;2022-08-01T10:56:45;32.90;48.70
25616;DHT22;13482;48.234;13.006;2022-08-01T10:59:26;32.90;48.40
25616;DHT22;13482;48.234;13.006;2022-08-01T11:02:27;32.90;49.40
25616;DHT22;13482;48.234;13.006;2022-08-01T11:05:01;32.90;49.20
25616;DHT22;13482;48.234;13.006;2022-08-01T11:07:44;33.00;49.90
25616;DHT22;13482;48.234;13.006;2022-08-01T11:12:54;33.20;49.80
25616;DHT22;13482;48.234;13.006;2022-08-01T11:15:23;33.20;49.90
25616;DHT22;13482;48.234;13.006;2022-08-01T11:17:58;33.30;50.00
25616;DHT22;13482;48.234;13.006;2022-08-01T11:28:26;33.60;48.50
25616;DHT22;13482;48.234;13.006;2022-08-01T11:38:48;33.40;48.60
25616;DHT22;13482;48.234;13.006;2022-08-01T11:41:30;33.30;48.40
25616;DHT22;13482;48.234;13.006;2022-08-01T11:44:10;33.30;49.40
25616;DHT22;13482;48.234;13.006;2022-08-01T11:47:06;33.40;48.70
25616;DHT22;13482;48.234;13.006;2022-08-01T11:52:23;33.30;47.40
25616;DHT22;13482;48.234;13.006;2022-08-01T11:57:30;33.20;47.30
25616;DHT22;13482;48.234;13.006;2022-08-01T12:00:15;33.10;48.10
25616;DHT22;13482;48.234;13.006;2022-08-01T12:02:46;33.10;48.10
25616;DHT22;13482;48.234;13.006;2022-08-01T12:05:16;33.20;48.50
25616;DHT22;13482;48.234;13.006;2022-08-01T12:07:51;33.30;47.80
25616;DHT22;13482;48.234;13.006;2022-08-01T12:10:21;33.40;47.60
25616;DHT22;13482;48.234;13.006;2022-08-01T12:12:54;33.40;47.00
25616;DHT22;13482;48.234;13.006;2022-08-01T12:15:24;33.50;46.50
25616;DHT22;13482;48.234;13.006;2022-08-01T12:17:59;33.50;47.30
25616;DHT22;13482;48.234;13.006;2022-08-01T12:20:33;33.60;47.30
25616;DHT22;13482;48.234;13.006;2022-08-01T12:23:07;33.60;46.80
25616;DHT22;13482;48.234;13.006;2022-08-01T12:25:36;33.70;46.50
25616;DHT22;13482;48.234;13.006;2022-08-01T12:28:08;33.80;46.50
25616;DHT22;13482;48.234;13.006;2022-08-01T12:30:37;33.90;46.70
25616;DHT22;13482;48.234;13.006;2022-08-01T12:33:07;34.00;46.80
25616;DHT22;13482;48.234;13.006;2022-08-01T12:35:38;34.00;46.60
25616;DHT22;13482;48.234;13.006;2022-08-01T12:38:09;34.00;46.20
25616;DHT22;13482;48.234;13.006;2022-08-01T12:40:43;34.00;46.10
25616;DHT22;13482;48.234;13.006;2022-08-01T12:43:16;33.90;46.70
25616;DHT22;13482;48.234;13.006;2022-08-01T12:45:55;34.00;46.30
25616;DHT22;13482;48.234;13.006;2022-08-01T12:48:25;34.00;46.00
25616;DHT22;13482;48.234;13.006;2022-08-01T12:50:53;34.10;45.90
25616;DHT22;13482;48.234;13.006;2022-08-01T12:53:24;34.10;45.90
25616;DHT22;13482;48.234;13.006;2022-08-01T12:56:05;34.20;44.30
25616;DHT22;13482;48.234;13.006;2022-08-01T12:58:35;34.30;46.20
25616;DHT22;13482;48.234;13.006;2022-08-01T13:01:05;34.30;45.50
25616;DHT22;13482;48.234;13.006;2022-08-01T13:03:34;34.30;45.60
25616;DHT22;13482;48.234;13.006;2022-08-01T13:06:10;34.30;45.60
25616;DHT22;13482;48.234;13.006;2022-08-01T13:08:39;34.20;45.10
25616;DHT22;13482;48.234;13.006;2022-08-01T13:11:09;34.20;45.50
25616;DHT22;13482;48.234;13.006;2022-08-01T13:13:49;34.10;45.60
25616;DHT22;13482;48.234;13.006;2022-08-01T13:16:22;34.10;45.50
25616;DHT22;13482;48.234;13.006;2022-08-01T13:19:00;34.20;45.60
25616;DHT22;13482;48.234;13.006;2022-08-01T13:21:28;34.20;45.50
25616;DHT22;13482;48.234;13.006;2022-08-01T13:24:23;34.20;45.50
25616;DHT22;13482;48.234;13.006;2022-08-01T13:26:53;34.30;45.50
25616;DHT22;13482;48.234;13.006;2022-08-01T13:29:36;34.40;45.60
25616;DHT22;13482;48.234;13.006;2022-08-01T13:35:05;34.50;45.60
25616;DHT22;13482;48.234;13.006;2022-08-01T13:37:39;34.60;45.60
25616;DHT22;13482;48.234;13.006;2022-08-01T13:40:09;34.70;45.60
25616;DHT22;13482;48.234;13.006;2022-08-01T13:42:37;34.80;45.60
25616;DHT22;13482;48.234;13.006;2022-08-01T13:45:06;34.80;45.40
25616;DHT22;13482;48.234;13.006;2022-08-01T13:47:41;34.90;45.20
25616;DHT22;13482;48.234;13.006;2022-08-01T13:50:29;35.00;45.10
25616;DHT22;13482;48.234;13.006;2022-08-01T13:52:57;35.10;45.20
25616;DHT22;13482;48.234;13.006;2022-08-01T13:55:24;35.10;44.90
25616;DHT22;13482;48.234;13.006;2022-08-01T13:57:55;35.10;44.60
25616;DHT22;13482;48.234;13.006;2022-08-01T14:00:22;35.10;44.50
25616;DHT22;13482;48.234;13.006;2022-08-01T14:02:50;35.00;44.40
25616;DHT22;13482;48.234;13.006;2022-08-01T14:05:17;34.90;44.20
25616;DHT22;13482;48.234;13.006;2022-08-01T14:07:44;34.70;44.20
25616;DHT22;13482;48.234;13.006;2022-08-01T14:10:14;34.50;44.20
25616;DHT22;13482;48.234;13.006;2022-08-01T14:12:49;34.30;44.30
25616;DHT22;13482;48.234;13.006;2022-08-01T14:15:17;34.10;44.20
25616;DHT22;13482;48.234;13.006;2022-08-01T14:18:05;33.90;44.80
25616;DHT22;13482;48.234;13.006;2022-08-01T14:20:35;33.70;45.20
25616;DHT22;13482;48.234;13.006;2022-08-01T14:23:03;33.60;45.40
25616;DHT22;13482;48.234;13.006;2022-08-01T14:25:38;33.40;45.60
25616;DHT22;13482;48.234;13.006;2022-08-01T14:28:26;33.30;45.80
25616;DHT22;13482;48.234;13.006;2022-08-01T14:30:56;33.20;46.10
25616;DHT22;13482;48.234;13.006;2022-08-01T14:33:23;33.10;46.40
25616;DHT22;13482;48.234;13.006;2022-08-01T14:35:51;33.00;46.60
25616;DHT22;13482;48.234;13.006;2022-08-01T14:38:39;33.00;46.60
25616;DHT22;13482;48.234;13.006;2022-08-01T14:41:06;33.00;46.50
25616;DHT22;13482;48.234;13.006;2022-08-01T14:43:33;33.00;46.50
25616;DHT22;13482;48.234;13.006;2022-08-01T14:46:00;32.90;46.60
25616;DHT22;13482;48.234;13.006;2022-08-01T14:48:30;32.90;46.90
25616;DHT22;13482;48.234;13.006;2022-08-01T14:50:58;33.00;46.80
25616;DHT22;13482;48.234;13.006;2022-08-01T14:53:29;33.10;46.70
25616;DHT22;13482;48.234;13.006;2022-08-01T14:56:06;33.20;46.30
25616;DHT22;13482;48.234;13.006;2022-08-01T14:58:33;33.30;46.40
25616;DHT22;13482;48.234;13.006;2022-08-01T15:01:00;33.40;46.40
25616;DHT22;13482;48.234;13.006;2022-08-01T15:03:28;33.50;46.20
25616;DHT22;13482;48.234;13.006;2022-08-01T15:05:55;33.60;45.90
25616;DHT22;13482;48.234;13.006;2022-08-01T15:08:22;33.60;46.20
25616;DHT22;13482;48.234;13.006;2022-08-01T15:10:50;33.50;46.10
25616;DHT22;13482;48.234;13.006;2022-08-01T15:13:17;33.40;46.20
25616;DHT22;13482;48.234;13.006;2022-08-01T15:15:45;33.30;46.30
25616;DHT22;13482;48.234;13.006;2022-08-01T15:18:12;33.10;46.40
25616;DHT22;13482;48.234;13.006;2022-08-01T15:20:39;32.90;46.60
25616;DHT22;13482;48.234;13.006;2022-08-01T15:23:07;32.90;46.80
25616;DHT22;13482;48.234;13.006;2022-08-01T15:25:34;32.70;47.00
25616;DHT22;13482;48.234;13.006;2022-08-01T15:28:11;32.70;47.20
25616;DHT22;13482;48.234;13.006;2022-08-01T15:30:39;32.70;47.30
25616;DHT22;13482;48.234;13.006;2022-08-01T15:33:06;32.70;47.10
25616;DHT22;13482;48.234;13.006;2022-08-01T15:35:34;32.80;47.10
25616;DHT22;13482;48.234;13.006;2022-08-01T15:38:02;32.80;46.90
25616;DHT22;13482;48.234;13.006;2022-08-01T15:40:29;32.90;46.80
25616;DHT22;13482;48.234;13.006;2022-08-01T15:43:01;32.90;46.50
25616;DHT22;13482;48.234;13.006;2022-08-01T15:45:29;32.90;46.50
25616;DHT22;13482;48.234;13.006;2022-08-01T15:48:13;32.90;46.40
25616;DHT22;13482;48.234;13.006;2022-08-01T15:50:40;32.80;46.40
25616;DHT22;13482;48.234;13.006;2022-08-01T15:53:08;32.70;46.50
25616;DHT22;13482;48.234;13.006;2022-08-01T15:55:35;32.60;46.60
25616;DHT22;13482;48.234;13.006;2022-08-01T15:58:04;32.60;46.70
25616;DHT22;13482;48.234;13.006;2022-08-01T16:00:32;32.50;46.70
25616;DHT22;13482;48.234;13.006;2022-08-01T16:03:08;32.40;46.90
25616;DHT22;13482;48.234;13.006;2022-08-01T16:05:36;32.40;47.00
25616;DHT22;13482;48.234;13.006;2022-08-01T16:08:11;32.40;47.00
25616;DHT22;13482;48.234;13.006;2022-08-01T16:10:38;32.30;47.00
25616;DHT22;13482;48.234;13.006;2022-08-01T16:13:06;32.30;47.10
25616;DHT22;13482;48.234;13.006;2022-08-01T16:15:34;32.20;47.00
25616;DHT22;13482;48.234;13.006;2022-08-01T16:18:08;32.10;47.00
25616;DHT22;13482;48.234;13.006;2022-08-01T16:20:38;32.00;47.10
25616;DHT22;13482;48.234;13.006;2022-08-01T16:23:12;31.90;47.40
25616;DHT22;13482;48.234;13.006;2022-08-01T16:25:40;31.90;47.50